createdAt,value
2019-03-19T00:00:07.768Z,75.60
2019-03-19T00:02:34.108Z,75.36
2019-03-19T00:05:00.410Z,75.44
2019-03-19T00:07:36.931Z,75.37
2019-03-19T00:09:54.997Z,75.26
2019-03-19T00:12:21.349Z,75.48
2019-03-19T00:14:47.730Z,75.38
2019-03-19T00:17:14.037Z,75.48
2019-03-19T00:19:40.385Z,75.65
2019-03-19T00:22:06.473Z,75.55
2019-03-19T00:24:32.794Z,75.54
2019-03-19T00:26:59.062Z,75.50
2019-03-19T00:29:25.350Z,75.47
2019-03-19T00:31:51.588Z,75.54
2019-03-19T00:34:17.961Z,75.56
2019-03-19T00:36:44.271Z,75.59
2019-03-19T00:39:10.693Z,75.40
2019-03-19T00:41:36.939Z,75.10
2019-03-19T00:44:03.241Z,75.03
2019-03-19T00:46:29.535Z,74.89
2019-03-19T00:48:55.883Z,74.75
2019-03-19T00:51:22.166Z,74.83
2019-03-19T00:53:48.355Z,74.72
2019-03-19T00:56:14.703Z,74.59
2019-03-19T00:58:40.888Z,74.77
2019-03-19T01:04:03.392Z,74.78
2019-03-19T01:06:29.635Z,74.78
2019-03-19T01:08:56.021Z,74.83
2019-03-19T01:11:22.297Z,75.06
2019-03-19T01:13:48.629Z,74.89
2019-03-19T01:16:14.866Z,74.96
2019-03-19T01:18:41.167Z,74.81
2019-03-19T01:21:07.461Z,74.66
2019-03-19T01:23:33.768Z,74.58
2019-03-19T01:26:00.039Z,74.56
2019-03-19T01:28:26.387Z,74.95
2019-03-19T01:30:52.668Z,75.15
2019-03-19T01:33:18.936Z,75.10
2019-03-19T01:35:45.235Z,75.10
2019-03-19T01:38:11.447Z,75.24
2019-03-19T01:40:39.586Z,75.24
2019-03-19T01:43:08.807Z,75.34
2019-03-19T01:45:35.005Z,75.60
2019-03-19T01:48:01.439Z,75.85
2019-03-19T01:50:27.618Z,75.98
2019-03-19T01:52:53.938Z,76.14
2019-03-19T01:55:20.196Z,76.10
2019-03-19T01:57:49.199Z,75.86
2019-03-19T02:00:18.822Z,76.14
2019-03-19T02:02:45.047Z,76.21
2019-03-19T02:05:11.222Z,76.33
2019-03-19T02:07:37.495Z,76.43
2019-03-19T02:10:09.414Z,76.37
2019-03-19T02:12:35.723Z,76.33
2019-03-19T02:15:02.125Z,76.34
2019-03-19T02:17:28.435Z,76.26
2019-03-19T02:19:54.719Z,76.30
2019-03-19T02:22:21.145Z,76.36
2019-03-19T02:24:47.490Z,76.29
2019-03-19T02:27:13.667Z,76.26
2019-03-19T02:29:40.007Z,76.21
2019-03-19T02:32:06.149Z,76.03
2019-03-19T02:34:32.534Z,75.94
2019-03-19T02:36:58.833Z,75.71
2019-03-19T02:39:25.097Z,75.75
2019-03-19T02:41:51.432Z,76.08
2019-03-19T02:44:17.736Z,76.34
2019-03-19T02:46:44.090Z,76.34
2019-03-19T02:49:13.132Z,76.29
2019-03-19T02:51:39.416Z,76.26
2019-03-19T02:54:05.765Z,76.21
2019-03-19T02:56:33.943Z,76.07
2019-03-19T02:59:00.195Z,75.95
2019-03-19T03:01:26.480Z,75.59
2019-03-19T03:03:56.323Z,75.52
2019-03-19T03:06:22.576Z,75.69
2019-03-19T03:08:48.844Z,75.69
2019-03-19T03:11:15.102Z,75.75
2019-03-19T03:13:41.420Z,76.14
2019-03-19T03:16:07.709Z,76.06
2019-03-19T03:18:33.891Z,76.09
2019-03-19T03:21:05.429Z,76.24
2019-03-19T03:23:31.713Z,76.18
2019-03-19T03:25:57.885Z,76.26
2019-03-19T03:28:24.013Z,76.04
2019-03-19T03:30:50.303Z,76.00
2019-03-19T03:33:16.597Z,75.90
2019-03-19T03:35:42.916Z,75.90
2019-03-19T03:38:10.980Z,76.05
2019-03-19T03:40:37.255Z,76.22
2019-03-19T03:43:03.636Z,76.33
2019-03-19T03:45:29.893Z,75.99
2019-03-19T03:47:56.082Z,75.77
2019-03-19T03:50:22.359Z,75.37
2019-03-19T03:52:48.887Z,75.29
2019-03-19T03:55:17.610Z,74.89
2019-03-19T03:57:43.943Z,74.85
2019-03-19T04:00:15.469Z,74.55
2019-03-19T04:02:44.658Z,74.51
2019-03-19T04:05:09.907Z,74.66
2019-03-19T04:07:36.171Z,74.62
2019-03-19T04:10:05.375Z,74.92
2019-03-19T04:15:35.046Z,75.33
2019-03-19T04:18:01.260Z,75.43
2019-03-19T04:20:27.435Z,75.42
2019-03-19T04:22:53.871Z,74.97
2019-03-19T04:25:20.063Z,74.94
2019-03-19T04:27:46.299Z,75.05
2019-03-19T04:30:16.457Z,75.08
2019-03-19T04:32:42.798Z,75.21
2019-03-19T04:35:08.994Z,74.92
2019-03-19T04:37:35.319Z,74.76
2019-03-19T04:40:01.580Z,74.60
2019-03-19T04:42:27.896Z,74.60
2019-03-19T04:44:54.206Z,74.67
2019-03-19T04:47:20.509Z,74.47
2019-03-19T04:49:46.881Z,74.44
2019-03-19T04:52:13.230Z,74.60
2019-03-19T04:54:39.821Z,74.46
2019-03-19T04:57:06.213Z,74.18
2019-03-19T04:59:32.596Z,74.47
2019-03-19T05:01:58.878Z,74.77
2019-03-19T05:04:25.828Z,75.05
2019-03-19T05:06:51.871Z,74.82
2019-03-19T05:09:18.119Z,74.73
2019-03-19T05:11:44.402Z,74.73
2019-03-19T05:14:12.572Z,74.86
2019-03-19T05:16:38.774Z,75.15
2019-03-19T05:19:04.924Z,75.99
2019-03-19T05:21:31.215Z,75.39
2019-03-19T05:23:57.528Z,75.42
2019-03-19T05:26:23.671Z,75.43
2019-03-19T05:28:50.024Z,75.48
2019-03-19T05:31:16.244Z,75.44
2019-03-19T05:33:42.542Z,75.40
2019-03-19T05:36:08.815Z,75.47
2019-03-19T05:38:35.114Z,75.91
2019-03-19T05:41:01.517Z,76.51
2019-03-19T05:43:27.824Z,76.76
2019-03-19T05:45:54.001Z,76.71
2019-03-19T05:48:20.287Z,76.68
2019-03-19T05:50:46.630Z,76.73
2019-03-19T05:53:14.446Z,76.53
2019-03-19T05:55:49.209Z,76.49
2019-03-19T05:58:15.529Z,77.33
2019-03-19T06:00:41.676Z,77.54
2019-03-19T06:03:07.952Z,77.55
2019-03-19T06:05:34.211Z,77.81
2019-03-19T06:08:00.374Z,77.56
2019-03-19T06:10:26.622Z,77.60
2019-03-19T06:12:52.881Z,77.67
2019-03-19T06:15:19.138Z,77.81
2019-03-19T06:17:45.399Z,77.76
2019-03-19T06:20:13.078Z,78.28
2019-03-19T06:22:39.448Z,78.13
2019-03-19T06:25:07.465Z,78.53
2019-03-19T06:27:33.830Z,78.34
2019-03-19T06:30:00.334Z,78.71
2019-03-19T06:32:26.609Z,78.85
2019-03-19T06:34:52.927Z,79.09
2019-03-19T06:37:19.262Z,79.65
2019-03-19T06:39:45.430Z,79.40
2019-03-19T06:42:13.432Z,79.51
2019-03-19T06:44:39.681Z,79.75
2019-03-19T06:47:05.966Z,79.92
2019-03-19T06:49:32.092Z,79.78
2019-03-19T06:51:59.285Z,80.12
2019-03-19T06:54:25.774Z,79.80
2019-03-19T06:56:51.944Z,79.93
2019-03-19T06:59:18.241Z,80.31
2019-03-19T07:01:44.467Z,79.90
2019-03-19T07:04:13.290Z,79.74
2019-03-19T07:06:39.523Z,79.75
2019-03-19T07:09:06.895Z,79.73
2019-03-19T07:11:33.168Z,79.82
2019-03-19T07:13:59.403Z,80.26
2019-03-19T07:16:25.717Z,80.24
2019-03-19T07:18:51.990Z,79.89
2019-03-19T07:21:19.391Z,80.27
2019-03-19T07:23:45.694Z,80.05
2019-03-19T07:26:12.060Z,80.04
2019-03-19T07:28:38.500Z,80.11
2019-03-19T07:31:05.043Z,80.07
2019-03-19T07:33:31.979Z,80.30
2019-03-19T07:35:58.344Z,79.90
2019-03-19T07:38:24.710Z,79.72
2019-03-19T07:40:51.048Z,80.04
2019-03-19T07:43:17.436Z,79.66
2019-03-19T07:45:43.752Z,79.57
2019-03-19T07:48:12.738Z,79.50
2019-03-19T07:50:38.943Z,79.25
2019-03-19T07:53:05.195Z,78.96
2019-03-19T07:55:31.401Z,78.74
2019-03-19T07:57:57.564Z,78.74
2019-03-19T08:00:23.715Z,78.45
2019-03-19T08:02:53.412Z,78.40
2019-03-19T08:05:19.562Z,78.60
2019-03-19T08:07:45.886Z,78.04
2019-03-19T08:10:18.786Z,77.52
2019-03-19T08:12:45.528Z,77.75
2019-03-19T08:15:14.183Z,77.29
2019-03-19T08:17:42.813Z,77.12
2019-03-19T08:20:13.008Z,77.25
2019-03-19T08:22:40.160Z,76.23
2019-03-19T08:25:14.962Z,75.47
2019-03-19T08:27:43.331Z,75.08
2019-03-19T08:30:25.083Z,74.57
2019-03-19T08:32:51.535Z,74.05
2019-03-19T08:35:17.503Z,72.12
2019-03-19T08:37:43.644Z,71.53
2019-03-19T08:40:12.039Z,71.62
2019-03-19T08:42:38.418Z,71.37
2019-03-19T08:45:35.372Z,70.25
2019-03-19T08:48:37.517Z,69.06
2019-03-19T08:51:31.819Z,65.84
2019-03-19T08:53:57.433Z,65.32
2019-03-19T08:56:32.629Z,64.28
2019-03-19T08:59:17.139Z,64.32
2019-03-19T09:03:11.488Z,64.67
2019-03-19T09:05:52.868Z,64.20
2019-03-19T09:08:10.093Z,63.53
2019-03-19T09:10:46.643Z,64.18
2019-03-19T09:13:13.233Z,63.90
2019-03-19T09:15:42.762Z,63.56
2019-03-19T09:18:10.251Z,63.60
2019-03-19T09:20:44.602Z,62.41
2019-03-19T09:23:33.453Z,61.83
2019-03-19T09:26:10.533Z,61.71
2019-03-19T09:28:43.053Z,62.79
2019-03-19T09:31:15.608Z,60.08
2019-03-19T09:33:54.710Z,60.08
2019-03-19T09:39:14.336Z,59.61
2019-03-19T09:41:45.896Z,60.13
2019-03-19T09:44:15.849Z,60.98
2019-03-19T09:47:03.239Z,60.75
2019-03-19T09:49:26.785Z,59.77
2019-03-19T09:51:52.959Z,60.19
2019-03-19T09:54:19.142Z,60.94
2019-03-19T09:56:45.447Z,59.40
2019-03-19T09:59:11.498Z,58.15
2019-03-19T10:01:37.778Z,59.01
2019-03-19T10:04:04.052Z,59.54
2019-03-19T10:06:30.310Z,59.51
2019-03-19T10:08:58.413Z,59.56
2019-03-19T10:11:24.806Z,59.45
2019-03-19T10:13:51.089Z,59.38
2019-03-19T10:16:17.443Z,59.12
2019-03-19T10:18:43.978Z,56.36
2019-03-19T10:21:10.279Z,56.59
2019-03-19T10:23:36.712Z,56.17
2019-03-19T10:26:04.581Z,56.52
2019-03-19T10:28:30.863Z,54.98
2019-03-19T10:30:57.206Z,54.21
2019-03-19T10:33:23.499Z,53.31
2019-03-19T10:35:51.726Z,54.04
2019-03-19T10:38:18.034Z,53.59
2019-03-19T10:40:44.360Z,53.72
2019-03-19T10:43:10.684Z,53.73
2019-03-19T10:45:41.881Z,54.51
2019-03-19T10:48:08.105Z,54.08
2019-03-19T10:50:34.370Z,54.44
2019-03-19T10:53:00.686Z,54.49
2019-03-19T10:55:27.002Z,54.03
2019-03-19T10:57:53.367Z,53.82
2019-03-19T11:00:23.380Z,53.36
2019-03-19T11:02:49.691Z,52.87
2019-03-19T11:05:16.351Z,52.75
2019-03-19T11:07:42.867Z,52.88
2019-03-19T11:10:10.716Z,52.39
2019-03-19T11:12:36.986Z,52.08
2019-03-19T11:15:06.663Z,51.52
2019-03-19T11:17:32.781Z,52.06
2019-03-19T11:19:59.029Z,51.83
2019-03-19T11:22:25.288Z,51.46
2019-03-19T11:24:51.526Z,50.79
2019-03-19T11:27:17.672Z,50.98
2019-03-19T11:29:43.890Z,50.61
2019-03-19T11:32:10.220Z,50.94
2019-03-19T11:34:36.583Z,50.06
2019-03-19T11:37:02.866Z,50.10
2019-03-19T11:39:32.126Z,49.70
2019-03-19T11:41:58.460Z,50.54
2019-03-19T11:44:27.413Z,49.48
2019-03-19T11:46:53.824Z,48.98
2019-03-19T11:49:20.143Z,49.11
2019-03-19T11:51:46.441Z,48.19
2019-03-19T11:54:12.749Z,48.79
2019-03-19T11:56:38.923Z,48.86
2019-03-19T11:59:10.185Z,48.15
2019-03-19T12:01:41.305Z,48.54
2019-03-19T12:04:42.718Z,48.02
2019-03-19T12:07:15.358Z,46.87
2019-03-19T12:10:14.254Z,47.67
2019-03-19T12:12:40.555Z,47.68
2019-03-19T12:15:11.390Z,48.10
2019-03-19T12:17:37.852Z,47.58
2019-03-19T12:20:07.011Z,47.89
2019-03-19T12:22:33.219Z,47.76
2019-03-19T12:25:38.864Z,47.75
2019-03-19T12:28:05.865Z,48.26
2019-03-19T12:33:40.304Z,48.08
2019-03-19T12:35:59.949Z,47.29
2019-03-19T12:38:33.248Z,47.29
2019-03-19T12:40:57.206Z,47.82
2019-03-19T12:43:23.402Z,47.86
2019-03-19T12:45:49.713Z,48.54
2019-03-19T12:48:16.000Z,47.75
2019-03-19T12:50:42.265Z,48.17
2019-03-19T12:53:08.550Z,48.08
2019-03-19T12:55:34.958Z,48.60
2019-03-19T12:58:01.638Z,48.62
2019-03-19T13:00:34.080Z,48.56
2019-03-19T13:02:56.491Z,48.45
2019-03-19T13:05:22.920Z,49.11
2019-03-19T13:07:49.492Z,48.16
2019-03-19T13:10:20.651Z,49.38
2019-03-19T13:12:47.057Z,49.77
2019-03-19T13:15:14.912Z,49.49
2019-03-19T13:17:42.265Z,49.66
2019-03-19T13:20:15.295Z,50.03
2019-03-19T13:22:41.533Z,50.08
2019-03-19T13:25:23.796Z,50.12
2019-03-19T13:27:50.000Z,49.75
2019-03-19T13:30:20.282Z,49.26
2019-03-19T13:32:46.301Z,49.98
2019-03-19T13:35:12.632Z,50.00
2019-03-19T13:37:40.771Z,50.05
2019-03-19T13:40:10.257Z,50.24
2019-03-19T13:42:36.407Z,49.14
2019-03-19T13:45:05.476Z,48.51
2019-03-19T13:47:31.521Z,48.28
2019-03-19T13:49:57.804Z,47.47
2019-03-19T13:52:24.079Z,47.79
2019-03-19T13:54:50.150Z,47.07
2019-03-19T13:57:16.452Z,47.58
2019-03-19T13:59:42.496Z,46.88
2019-03-19T14:02:08.820Z,46.68
2019-03-19T14:04:34.981Z,46.94
2019-03-19T14:07:01.219Z,47.24
2019-03-19T14:09:27.376Z,47.04
2019-03-19T14:11:53.407Z,47.11
2019-03-19T14:14:19.610Z,47.07
2019-03-19T14:16:45.951Z,47.12
2019-03-19T14:19:12.101Z,47.17
2019-03-19T14:21:38.084Z,47.63
2019-03-19T14:24:06.404Z,47.22
2019-03-19T14:26:34.508Z,47.37
2019-03-19T14:29:03.832Z,47.46
2019-03-19T14:31:29.916Z,47.91
2019-03-19T14:33:56.233Z,47.84
2019-03-19T14:36:22.268Z,47.22
2019-03-19T14:38:48.585Z,47.04
2019-03-19T14:41:14.726Z,47.08
2019-03-19T14:43:40.772Z,47.09
2019-03-19T14:46:06.918Z,48.10
2019-03-19T14:48:32.803Z,48.39
2019-03-19T14:51:02.267Z,48.39
2019-03-19T14:53:28.410Z,48.09
2019-03-19T14:55:54.772Z,48.68
2019-03-19T14:58:21.161Z,48.27
2019-03-19T15:00:47.474Z,48.33
2019-03-19T15:03:15.771Z,48.29
2019-03-19T15:05:42.078Z,48.67
2019-03-19T15:08:08.155Z,48.76
2019-03-19T15:10:34.299Z,48.23
2019-03-19T15:13:00.233Z,48.08
2019-03-19T15:15:26.272Z,48.39
2019-03-19T15:17:52.213Z,48.80
2019-03-19T15:20:22.671Z,48.70
2019-03-19T15:22:48.747Z,48.58
2019-03-19T15:25:14.695Z,47.60
2019-03-19T15:27:40.601Z,47.43
2019-03-19T15:30:09.856Z,47.62
2019-03-19T15:32:35.804Z,48.08
2019-03-19T15:35:01.935Z,48.41
2019-03-19T15:37:27.925Z,48.56
2019-03-19T15:39:53.853Z,48.00
2019-03-19T15:42:19.877Z,48.51
2019-03-19T15:44:45.800Z,48.38
2019-03-19T15:47:11.707Z,48.12
2019-03-19T15:49:38.584Z,47.83
2019-03-19T15:52:04.714Z,48.38
2019-03-19T15:54:30.642Z,47.95
2019-03-19T15:56:56.572Z,47.86
2019-03-19T15:59:22.482Z,47.79
2019-03-19T16:01:48.428Z,48.53
2019-03-19T16:04:14.455Z,48.53
2019-03-19T16:06:40.395Z,48.83
2019-03-19T16:09:07.020Z,48.67
2019-03-19T16:11:34.170Z,48.24
2019-03-19T16:14:02.114Z,48.59
2019-03-19T16:16:28.112Z,47.98
2019-03-19T16:18:54.138Z,48.47
2019-03-19T16:21:20.084Z,48.86
2019-03-19T16:23:46.020Z,49.17
2019-03-19T16:26:11.980Z,48.89
2019-03-19T16:28:37.976Z,48.36
2019-03-19T16:31:03.970Z,48.48
2019-03-19T16:33:29.926Z,48.55
2019-03-19T16:35:55.842Z,48.84
2019-03-19T16:38:21.835Z,48.37
2019-03-19T16:40:47.746Z,48.96
2019-03-19T16:43:13.666Z,49.43
2019-03-19T16:45:39.592Z,49.67
2019-03-19T16:48:05.605Z,48.70
2019-03-19T16:50:31.618Z,49.00
2019-03-19T16:52:58.023Z,48.56
2019-03-19T16:55:24.061Z,48.85
2019-03-19T16:57:49.996Z,48.38
2019-03-19T17:00:21.674Z,48.56
2019-03-19T17:02:47.686Z,49.08
2019-03-19T17:05:15.567Z,49.19
2019-03-19T17:07:43.704Z,49.75
2019-03-19T17:10:15.353Z,49.87
2019-03-19T17:12:42.084Z,50.23
2019-03-19T17:15:10.735Z,50.38
2019-03-19T17:17:36.776Z,50.56
2019-03-19T17:20:05.816Z,51.17
2019-03-19T17:22:32.073Z,51.98
2019-03-19T17:24:59.920Z,52.49
2019-03-19T17:27:25.870Z,53.21
2019-03-19T17:29:52.216Z,54.01
2019-03-19T17:32:18.845Z,55.44
2019-03-19T17:34:45.098Z,55.86
2019-03-19T17:37:11.911Z,56.20
2019-03-19T17:39:38.217Z,56.35
2019-03-19T17:42:06.283Z,55.99
2019-03-19T17:44:32.571Z,56.14
2019-03-19T17:46:58.948Z,56.04
2019-03-19T17:49:25.329Z,56.24
2019-03-19T17:51:51.747Z,56.12
2019-03-19T17:54:20.669Z,56.20
2019-03-19T17:56:50.663Z,57.19
2019-03-19T17:59:19.665Z,57.77
2019-03-19T18:01:46.011Z,57.88
2019-03-19T18:04:12.406Z,57.90
2019-03-19T18:06:38.675Z,58.04
2019-03-19T18:09:05.956Z,57.86
2019-03-19T18:11:35.915Z,57.86
2019-03-19T18:14:01.956Z,58.18
2019-03-19T18:16:27.892Z,58.43
2019-03-19T18:18:53.828Z,59.01
2019-03-19T18:21:19.736Z,59.28
2019-03-19T18:23:45.658Z,59.27
2019-03-19T18:26:11.584Z,59.28
2019-03-19T18:28:37.514Z,59.60
2019-03-19T18:31:03.433Z,59.77
2019-03-19T18:33:29.441Z,59.89
2019-03-19T18:35:56.594Z,59.80
2019-03-19T18:38:22.908Z,59.97
2019-03-19T18:40:48.850Z,60.02
2019-03-19T18:43:14.769Z,59.85
2019-03-19T18:45:40.680Z,59.94
2019-03-19T18:48:06.615Z,60.31
2019-03-19T18:50:32.545Z,60.18
2019-03-19T18:52:58.481Z,60.18
2019-03-19T18:55:24.402Z,60.30
2019-03-19T18:57:50.341Z,60.39
2019-03-19T19:00:21.896Z,60.41
2019-03-19T19:02:50.312Z,60.80
2019-03-19T19:05:19.954Z,60.94
2019-03-19T19:07:46.111Z,61.48
2019-03-19T19:10:13.173Z,61.46
2019-03-19T19:12:39.151Z,61.63
2019-03-19T19:15:10.917Z,61.58
2019-03-19T19:17:36.861Z,61.64
2019-03-19T19:20:04.910Z,62.04
2019-03-19T19:22:30.861Z,61.97
2019-03-19T19:24:56.867Z,61.81
2019-03-19T19:27:22.841Z,61.75
2019-03-19T19:29:48.870Z,61.59
2019-03-19T19:32:14.797Z,61.70
2019-03-19T19:35:18.048Z,61.73
2019-03-19T19:37:43.985Z,61.76
2019-03-19T19:40:14.989Z,61.88
2019-03-19T19:42:40.976Z,62.16
2019-03-19T19:45:09.026Z,62.24
2019-03-19T19:47:35.005Z,62.63
2019-03-19T19:50:01.033Z,62.81
2019-03-19T19:52:27.013Z,62.68
2019-03-19T19:54:52.932Z,62.72
2019-03-19T19:57:18.855Z,62.75
2019-03-19T19:59:44.915Z,62.81
2019-03-19T20:02:10.919Z,62.70
2019-03-19T20:04:37.044Z,62.73
2019-03-19T20:07:03.076Z,62.97
2019-03-19T20:09:29.004Z,63.07
2019-03-19T20:11:54.921Z,63.10
2019-03-19T20:14:21.108Z,63.17
2019-03-19T20:16:47.113Z,63.52
2019-03-19T20:19:13.056Z,63.57
2019-03-19T20:21:38.988Z,63.50
2019-03-19T20:24:04.922Z,63.43
2019-03-19T20:26:30.867Z,63.69
2019-03-19T20:28:56.781Z,63.75
2019-03-19T20:31:22.716Z,64.16
2019-03-19T20:33:48.637Z,64.41
2019-03-19T20:36:14.559Z,64.33
2019-03-19T20:38:40.504Z,64.38
2019-03-19T20:41:06.438Z,64.23
2019-03-19T20:43:32.385Z,64.27
2019-03-19T20:45:58.359Z,64.30
2019-03-19T20:48:24.278Z,64.27
2019-03-19T20:50:50.216Z,64.33
2019-03-19T20:53:16.132Z,64.47
2019-03-19T20:55:42.072Z,64.61
2019-03-19T20:58:07.986Z,64.84
2019-03-19T21:00:33.931Z,64.83
2019-03-19T21:03:01.575Z,64.87
2019-03-19T21:05:27.543Z,64.93
2019-03-19T21:07:53.580Z,64.98
2019-03-19T21:10:20.751Z,65.01
2019-03-19T21:12:47.126Z,64.93
2019-03-19T21:15:15.053Z,65.01
2019-03-19T21:17:40.999Z,65.06
2019-03-19T21:20:14.462Z,65.01
2019-03-19T21:22:40.501Z,65.06
2019-03-19T21:25:08.465Z,65.21
2019-03-19T21:27:34.401Z,65.02
2019-03-19T21:30:00.603Z,64.91
2019-03-19T21:32:26.792Z,65.10
2019-03-19T21:34:52.741Z,65.05
2019-03-19T21:37:18.681Z,65.15
2019-03-19T21:39:44.714Z,65.17
2019-03-19T21:42:10.643Z,65.17
2019-03-19T21:44:36.554Z,65.21
2019-03-19T21:47:02.492Z,65.37
2019-03-19T21:49:28.407Z,65.49
2019-03-19T21:51:54.327Z,65.39
2019-03-19T21:54:20.246Z,65.51
2019-03-19T21:56:46.305Z,65.50
2019-03-19T21:59:12.243Z,65.40
2019-03-19T22:01:38.168Z,65.35
2019-03-19T22:04:04.081Z,65.28
2019-03-19T22:06:29.997Z,65.40
2019-03-19T22:08:55.915Z,65.33
2019-03-19T22:11:21.834Z,65.32
2019-03-19T22:13:47.761Z,65.51
2019-03-19T22:16:16.239Z,65.52
2019-03-19T22:18:42.161Z,65.56
2019-03-19T22:21:08.091Z,65.58
2019-03-19T22:23:34.008Z,65.66
2019-03-19T22:25:59.922Z,65.59
2019-03-19T22:28:25.854Z,65.61
2019-03-19T22:30:51.790Z,65.70
2019-03-19T22:33:17.714Z,65.85
2019-03-19T22:35:43.648Z,65.88
2019-03-19T22:38:15.355Z,65.86
2019-03-19T22:40:37.398Z,65.90
2019-03-19T22:43:03.321Z,66.09
2019-03-19T22:45:30.712Z,66.18
2019-03-19T22:48:00.252Z,66.27
2019-03-19T22:50:26.175Z,66.28
2019-03-19T22:52:52.105Z,66.25
2019-03-19T22:55:28.641Z,66.30
2019-03-19T22:57:45.962Z,66.36
2019-03-19T23:00:19.323Z,66.33
2019-03-19T23:02:45.256Z,66.40
2019-03-19T23:05:12.709Z,66.32
2019-03-19T23:07:38.646Z,66.39
2019-03-19T23:10:04.637Z,66.25
2019-03-19T23:12:30.561Z,66.33
2019-03-19T23:14:58.894Z,66.32
2019-03-19T23:17:24.822Z,66.47
2019-03-19T23:19:57.456Z,66.43
2019-03-19T23:22:23.486Z,66.34
2019-03-19T23:24:49.427Z,66.45
2019-03-19T23:27:15.352Z,66.65
2019-03-19T23:29:41.285Z,66.82
2019-03-19T23:32:07.313Z,66.71
2019-03-19T23:34:38.480Z,66.84
2019-03-19T23:37:01.097Z,66.79
2019-03-19T23:39:27.027Z,66.85
2019-03-19T23:41:52.955Z,66.86
2019-03-19T23:44:18.926Z,66.86
2019-03-19T23:46:44.837Z,66.81
2019-03-19T23:49:14.807Z,66.73
2019-03-19T23:51:40.733Z,66.95
2019-03-19T23:54:06.666Z,66.90
2019-03-19T23:56:32.679Z,66.98
2019-03-19T23:58:58.659Z,67.05
